sensor_id;sensor_type;location;lat;lon;timestamp;temperature;humidity
53876;DHT22;39789;53.216;5.624;2024-03-02T00:01:05;8.10;99.90
53876;DHT22;39789;53.216;5.624;2024-03-02T00:03:32;9.00;99.90
53876;DHT22;39789;53.216;5.624;2024-03-02T00:05:57;8.10;99.90
53876;DHT22;39789;53.216;5.624;2024-03-02T00:08:24;9.10;99.90
53876;DHT22;39789;53.216;5.624;2024-03-02T00:11:00;9.00;99.90
53876;DHT22;39789;53.216;5.624;2024-03-02T00:13:28;8.10;99.90
53876;DHT22;39789;53.216;5.624;2024-03-02T00:15:57;8.10;99.90
53876;DHT22;39789;53.216;5.624;2024-03-02T00:18:30;8.30;99.90
53876;DHT22;39789;53.216;5.624;2024-03-02T00:20:57;8.10;99.90
53876;DHT22;39789;53.216;5.624;2024-03-02T00:23:24;8.10;99.90
53876;DHT22;39789;53.216;5.624;2024-03-02T00:25:54;8.70;99.90
53876;DHT22;39789;53.216;5.624;2024-03-02T00:28:24;8.60;99.90
53876;DHT22;39789;53.216;5.624;2024-03-02T00:30:54;8.10;99.90
53876;DHT22;39789;53.216;5.624;2024-03-02T00:33:21;8.80;99.90
53876;DHT22;39789;53.216;5.624;2024-03-02T00:35:48;8.10;99.90
53876;DHT22;39789;53.216;5.624;2024-03-02T00:38:15;8.00;99.90
53876;DHT22;39789;53.216;5.624;2024-03-02T00:40:44;8.60;99.90
53876;DHT22;39789;53.216;5.624;2024-03-02T00:46:00;7.80;99.90
53876;DHT22;39789;53.216;5.624;2024-03-02T00:48:26;7.70;99.90
53876;DHT22;39789;53.216;5.624;2024-03-02T00:50:52;7.80;99.90
53876;DHT22;39789;53.216;5.624;2024-03-02T00:53:23;7.60;99.90
53876;DHT22;39789;53.216;5.624;2024-03-02T00:55:51;8.50;99.90
53876;DHT22;39789;53.216;5.624;2024-03-02T00:58:17;9.30;99.90
53876;DHT22;39789;53.216;5.624;2024-03-02T01:00:42;7.60;99.90
53876;DHT22;39789;53.216;5.624;2024-03-02T01:03:08;7.60;99.90
53876;DHT22;39789;53.216;5.624;2024-03-02T01:05:34;8.00;99.90
53876;DHT22;39789;53.216;5.624;2024-03-02T01:08:00;7.60;99.90
53876;DHT22;39789;53.216;5.624;2024-03-02T01:10:26;7.70;99.90
53876;DHT22;39789;53.216;5.624;2024-03-02T01:12:51;8.70;99.90
53876;DHT22;39789;53.216;5.624;2024-03-02T01:15:17;8.30;99.90
53876;DHT22;39789;53.216;5.624;2024-03-02T01:17:43;8.50;99.90
53876;DHT22;39789;53.216;5.624;2024-03-02T01:20:09;8.40;99.90
53876;DHT22;39789;53.216;5.624;2024-03-02T01:22:35;8.00;99.90
53876;DHT22;39789;53.216;5.624;2024-03-02T01:25:01;8.10;99.90
53876;DHT22;39789;53.216;5.624;2024-03-02T01:27:27;8.10;99.90
53876;DHT22;39789;53.216;5.624;2024-03-02T01:29:53;8.40;99.90
53876;DHT22;39789;53.216;5.624;2024-03-02T01:32:20;8.20;99.90
53876;DHT22;39789;53.216;5.624;2024-03-02T01:34:45;8.70;99.90
53876;DHT22;39789;53.216;5.624;2024-03-02T01:37:11;8.70;99.90
53876;DHT22;39789;53.216;5.624;2024-03-02T01:39:37;8.30;99.90
53876;DHT22;39789;53.216;5.624;2024-03-02T01:42:03;8.50;99.90
53876;DHT22;39789;53.216;5.624;2024-03-02T01:44:29;8.40;99.90
53876;DHT22;39789;53.216;5.624;2024-03-02T01:46:54;8.80;99.90
53876;DHT22;39789;53.216;5.624;2024-03-02T01:49:20;8.60;99.90
53876;DHT22;39789;53.216;5.624;2024-03-02T01:51:46;8.50;99.90
53876;DHT22;39789;53.216;5.624;2024-03-02T01:54:11;9.00;99.90
53876;DHT22;39789;53.216;5.624;2024-03-02T01:56:37;8.50;99.90
53876;DHT22;39789;53.216;5.624;2024-03-02T01:59:03;8.80;99.90
53876;DHT22;39789;53.216;5.624;2024-03-02T02:01:29;8.60;99.90
53876;DHT22;39789;53.216;5.624;2024-03-02T02:03:56;8.60;99.90
53876;DHT22;39789;53.216;5.624;2024-03-02T02:06:22;8.60;99.90
53876;DHT22;39789;53.216;5.624;2024-03-02T02:08:51;8.60;99.90
53876;DHT22;39789;53.216;5.624;2024-03-02T02:11:16;6.80;99.90
53876;DHT22;39789;53.216;5.624;2024-03-02T02:13:42;8.70;99.90
53876;DHT22;39789;53.216;5.624;2024-03-02T02:16:09;8.60;99.90
53876;DHT22;39789;53.216;5.624;2024-03-02T02:18:35;8.70;99.90
53876;DHT22;39789;53.216;5.624;2024-03-02T02:21:02;8.60;99.90
53876;DHT22;39789;53.216;5.624;2024-03-02T02:23:27;8.60;99.90
53876;DHT22;39789;53.216;5.624;2024-03-02T02:25:53;9.00;99.90
53876;DHT22;39789;53.216;5.624;2024-03-02T02:28:19;8.80;99.90
53876;DHT22;39789;53.216;5.624;2024-03-02T02:30:44;8.50;99.90
53876;DHT22;39789;53.216;5.624;2024-03-02T02:33:10;8.50;99.90
53876;DHT22;39789;53.216;5.624;2024-03-02T02:35:36;8.50;99.90
53876;DHT22;39789;53.216;5.624;2024-03-02T02:38:02;8.50;99.90
53876;DHT22;39789;53.216;5.624;2024-03-02T02:40:28;8.50;99.90
53876;DHT22;39789;53.216;5.624;2024-03-02T02:42:57;8.50;99.90
53876;DHT22;39789;53.216;5.624;2024-03-02T02:45:24;8.50;99.90
53876;DHT22;39789;53.216;5.624;2024-03-02T02:47:50;9.10;99.90
53876;DHT22;39789;53.216;5.624;2024-03-02T02:50:16;8.40;99.90
53876;DHT22;39789;53.216;5.624;2024-03-02T02:52:42;8.30;99.90
53876;DHT22;39789;53.216;5.624;2024-03-02T02:55:12;8.50;99.90
53876;DHT22;39789;53.216;5.624;2024-03-02T02:57:41;8.30;99.90
53876;DHT22;39789;53.216;5.624;2024-03-02T03:00:15;8.20;99.90
53876;DHT22;39789;53.216;5.624;2024-03-02T03:02:46;8.20;99.90
53876;DHT22;39789;53.216;5.624;2024-03-02T03:05:13;8.80;99.90
53876;DHT22;39789;53.216;5.624;2024-03-02T03:07:40;8.10;99.90
53876;DHT22;39789;53.216;5.624;2024-03-02T03:10:07;8.50;99.90
53876;DHT22;39789;53.216;5.624;2024-03-02T03:12:34;8.10;99.90
53876;DHT22;39789;53.216;5.624;2024-03-02T03:15:00;8.10;99.90
53876;DHT22;39789;53.216;5.624;2024-03-02T03:17:26;8.10;99.90
53876;DHT22;39789;53.216;5.624;2024-03-02T03:19:55;8.10;99.90
53876;DHT22;39789;53.216;5.624;2024-03-02T03:22:20;8.30;99.90
53876;DHT22;39789;53.216;5.624;2024-03-02T03:24:46;8.70;99.90
53876;DHT22;39789;53.216;5.624;2024-03-02T03:27:12;8.10;99.90
53876;DHT22;39789;53.216;5.624;2024-03-02T03:29:37;8.00;99.90
53876;DHT22;39789;53.216;5.624;2024-03-02T03:32:03;7.90;99.90
53876;DHT22;39789;53.216;5.624;2024-03-02T03:34:32;7.90;99.90
53876;DHT22;39789;53.216;5.624;2024-03-02T03:36:58;7.80;99.90
53876;DHT22;39789;53.216;5.624;2024-03-02T03:39:24;7.90;99.90
53876;DHT22;39789;53.216;5.624;2024-03-02T03:41:49;8.20;99.90
53876;DHT22;39789;53.216;5.624;2024-03-02T03:44:15;8.20;99.90
53876;DHT22;39789;53.216;5.624;2024-03-02T03:46:41;7.90;99.90
53876;DHT22;39789;53.216;5.624;2024-03-02T03:49:07;8.20;99.90
53876;DHT22;39789;53.216;5.624;2024-03-02T03:51:33;7.60;99.90
53876;DHT22;39789;53.216;5.624;2024-03-02T03:53:59;8.00;99.90
53876;DHT22;39789;53.216;5.624;2024-03-02T03:56:25;7.40;99.90
53876;DHT22;39789;53.216;5.624;2024-03-02T03:58:50;7.40;99.90
53876;DHT22;39789;53.216;5.624;2024-03-02T04:01:16;7.40;99.90
53876;DHT22;39789;53.216;5.624;2024-03-02T04:03:42;7.50;99.90
53876;DHT22;39789;53.216;5.624;2024-03-02T04:06:07;7.30;99.90
53876;DHT22;39789;53.216;5.624;2024-03-02T04:08:33;8.30;99.90
53876;DHT22;39789;53.216;5.624;2024-03-02T04:10:59;7.80;99.90
53876;DHT22;39789;53.216;5.624;2024-03-02T04:13:24;7.60;99.90
53876;DHT22;39789;53.216;5.624;2024-03-02T04:15:50;7.60;99.90
53876;DHT22;39789;53.216;5.624;2024-03-02T04:18:16;7.20;99.90
53876;DHT22;39789;53.216;5.624;2024-03-02T04:20:41;8.10;99.90
53876;DHT22;39789;53.216;5.624;2024-03-02T04:23:07;7.60;99.90
53876;DHT22;39789;53.216;5.624;2024-03-02T04:25:33;8.10;99.90
53876;DHT22;39789;53.216;5.624;2024-03-02T04:27:59;7.90;99.90
53876;DHT22;39789;53.216;5.624;2024-03-02T04:30:25;7.70;99.90
53876;DHT22;39789;53.216;5.624;2024-03-02T04:32:50;7.40;99.90
53876;DHT22;39789;53.216;5.624;2024-03-02T04:35:16;7.30;99.90
53876;DHT22;39789;53.216;5.624;2024-03-02T04:37:42;7.40;99.90
53876;DHT22;39789;53.216;5.624;2024-03-02T04:40:08;7.10;99.90
53876;DHT22;39789;53.216;5.624;2024-03-02T04:42:35;8.50;99.90
53876;DHT22;39789;53.216;5.624;2024-03-02T04:45:01;7.00;99.90
53876;DHT22;39789;53.216;5.624;2024-03-02T04:47:26;8.20;99.90
53876;DHT22;39789;53.216;5.624;2024-03-02T04:49:52;7.00;99.90
53876;DHT22;39789;53.216;5.624;2024-03-02T04:52:18;7.30;99.90
53876;DHT22;39789;53.216;5.624;2024-03-02T04:54:44;8.10;99.90
53876;DHT22;39789;53.216;5.624;2024-03-02T04:57:28;7.20;99.90
53876;DHT22;39789;53.216;5.624;2024-03-02T04:59:53;7.90;99.90
53876;DHT22;39789;53.216;5.624;2024-03-02T05:02:19;6.70;99.90
53876;DHT22;39789;53.216;5.624;2024-03-02T05:04:45;7.80;99.90
53876;DHT22;39789;53.216;5.624;2024-03-02T05:07:10;7.00;99.90
53876;DHT22;39789;53.216;5.624;2024-03-02T05:09:36;7.50;99.90
53876;DHT22;39789;53.216;5.624;2024-03-02T05:12:02;7.20;99.90
53876;DHT22;39789;53.216;5.624;2024-03-02T05:14:48;6.40;99.90
53876;DHT22;39789;53.216;5.624;2024-03-02T05:17:13;6.90;99.90
53876;DHT22;39789;53.216;5.624;2024-03-02T05:19:39;6.70;99.90
53876;DHT22;39789;53.216;5.624;2024-03-02T05:22:05;7.40;99.90
53876;DHT22;39789;53.216;5.624;2024-03-02T05:24:31;7.00;99.90
53876;DHT22;39789;53.216;5.624;2024-03-02T05:26:57;6.20;99.90
53876;DHT22;39789;53.216;5.624;2024-03-02T05:29:22;7.60;99.90
53876;DHT22;39789;53.216;5.624;2024-03-02T05:31:48;6.90;99.90
53876;DHT22;39789;53.216;5.624;2024-03-02T05:34:14;7.20;99.90
53876;DHT22;39789;53.216;5.624;2024-03-02T05:36:40;7.50;99.90
53876;DHT22;39789;53.216;5.624;2024-03-02T05:39:05;7.50;99.90
53876;DHT22;39789;53.216;5.624;2024-03-02T05:41:35;6.40;99.90
53876;DHT22;39789;53.216;5.624;2024-03-02T05:44:01;7.10;99.90
53876;DHT22;39789;53.216;5.624;2024-03-02T05:46:27;6.20;99.90
53876;DHT22;39789;53.216;5.624;2024-03-02T05:48:53;7.40;99.90
53876;DHT22;39789;53.216;5.624;2024-03-02T05:51:19;7.30;99.90
53876;DHT22;39789;53.216;5.624;2024-03-02T05:53:44;7.00;99.90
53876;DHT22;39789;53.216;5.624;2024-03-02T05:56:10;6.80;99.90
53876;DHT22;39789;53.216;5.624;2024-03-02T05:58:37;6.10;99.90
53876;DHT22;39789;53.216;5.624;2024-03-02T06:01:15;7.00;99.90
53876;DHT22;39789;53.216;5.624;2024-03-02T06:03:41;6.80;99.90
53876;DHT22;39789;53.216;5.624;2024-03-02T06:06:06;7.30;99.90
53876;DHT22;39789;53.216;5.624;2024-03-02T06:08:32;6.90;99.90
53876;DHT22;39789;53.216;5.624;2024-03-02T06:10:58;6.70;99.90
53876;DHT22;39789;53.216;5.624;2024-03-02T06:13:24;7.00;99.90
53876;DHT22;39789;53.216;5.624;2024-03-02T06:15:51;6.90;99.90
53876;DHT22;39789;53.216;5.624;2024-03-02T06:18:16;6.70;99.90
53876;DHT22;39789;53.216;5.624;2024-03-02T06:20:42;6.30;99.90
53876;DHT22;39789;53.216;5.624;2024-03-02T06:23:08;6.90;99.90
53876;DHT22;39789;53.216;5.624;2024-03-02T06:25:33;6.00;99.90
53876;DHT22;39789;53.216;5.624;2024-03-02T06:27:59;6.90;99.90
53876;DHT22;39789;53.216;5.624;2024-03-02T06:30:25;6.80;99.90
53876;DHT22;39789;53.216;5.624;2024-03-02T06:32:50;6.60;99.90
53876;DHT22;39789;53.216;5.624;2024-03-02T06:35:16;5.30;99.90
53876;DHT22;39789;53.216;5.624;2024-03-02T06:37:41;5.30;99.90
53876;DHT22;39789;53.216;5.624;2024-03-02T06:40:08;6.80;99.90
53876;DHT22;39789;53.216;5.624;2024-03-02T06:42:34;5.40;99.90
53876;DHT22;39789;53.216;5.624;2024-03-02T06:45:00;6.90;99.90
53876;DHT22;39789;53.216;5.624;2024-03-02T06:47:26;6.80;99.90
53876;DHT22;39789;53.216;5.624;2024-03-02T06:49:51;6.00;99.90
53876;DHT22;39789;53.216;5.624;2024-03-02T06:52:18;7.20;99.90
53876;DHT22;39789;53.216;5.624;2024-03-02T06:54:44;6.50;99.90
53876;DHT22;39789;53.216;5.624;2024-03-02T06:57:10;6.70;99.90
53876;DHT22;39789;53.216;5.624;2024-03-02T06:59:35;7.30;99.90
53876;DHT22;39789;53.216;5.624;2024-03-02T07:02:01;7.70;99.90
53876;DHT22;39789;53.216;5.624;2024-03-02T07:04:27;6.40;99.90
53876;DHT22;39789;53.216;5.624;2024-03-02T07:06:53;7.40;99.90
53876;DHT22;39789;53.216;5.624;2024-03-02T07:09:18;7.00;99.90
53876;DHT22;39789;53.216;5.624;2024-03-02T07:11:48;7.40;99.90
53876;DHT22;39789;53.216;5.624;2024-03-02T07:14:14;7.40;99.90
53876;DHT22;39789;53.216;5.624;2024-03-02T07:16:40;6.00;99.90
53876;DHT22;39789;53.216;5.624;2024-03-02T07:19:06;5.90;99.90
53876;DHT22;39789;53.216;5.624;2024-03-02T07:21:32;6.80;99.90
53876;DHT22;39789;53.216;5.624;2024-03-02T07:24:00;6.50;99.90
53876;DHT22;39789;53.216;5.624;2024-03-02T07:26:30;7.10;99.90
53876;DHT22;39789;53.216;5.624;2024-03-02T07:28:57;7.10;99.90
53876;DHT22;39789;53.216;5.624;2024-03-02T07:31:22;7.40;99.90
53876;DHT22;39789;53.216;5.624;2024-03-02T07:33:48;6.50;99.90
53876;DHT22;39789;53.216;5.624;2024-03-02T07:36:14;6.30;99.90
53876;DHT22;39789;53.216;5.624;2024-03-02T07:38:40;7.10;99.90
53876;DHT22;39789;53.216;5.624;2024-03-02T07:41:08;7.10;99.90
53876;DHT22;39789;53.216;5.624;2024-03-02T07:43:34;6.90;99.90
53876;DHT22;39789;53.216;5.624;2024-03-02T07:46:00;7.40;99.90
53876;DHT22;39789;53.216;5.624;2024-03-02T07:48:26;7.20;99.90
53876;DHT22;39789;53.216;5.624;2024-03-02T07:50:52;7.30;99.90
53876;DHT22;39789;53.216;5.624;2024-03-02T07:53:18;7.60;99.90
53876;DHT22;39789;53.216;5.624;2024-03-02T07:55:43;7.20;99.90
53876;DHT22;39789;53.216;5.624;2024-03-02T07:58:09;7.70;99.90
53876;DHT22;39789;53.216;5.624;2024-03-02T08:00:39;7.00;99.90
53876;DHT22;39789;53.216;5.624;2024-03-02T08:03:05;7.40;99.90
53876;DHT22;39789;53.216;5.624;2024-03-02T08:05:30;7.10;99.90
53876;DHT22;39789;53.216;5.624;2024-03-02T08:07:56;7.30;99.90
53876;DHT22;39789;53.216;5.624;2024-03-02T08:10:22;6.90;99.90
53876;DHT22;39789;53.216;5.624;2024-03-02T08:12:47;7.30;99.90
53876;DHT22;39789;53.216;5.624;2024-03-02T08:15:13;7.30;99.90
53876;DHT22;39789;53.216;5.624;2024-03-02T08:17:40;7.20;99.90
53876;DHT22;39789;53.216;5.624;2024-03-02T08:20:13;8.40;99.90
53876;DHT22;39789;53.216;5.624;2024-03-02T08:22:39;7.30;99.90
53876;DHT22;39789;53.216;5.624;2024-03-02T08:25:05;7.50;99.90
53876;DHT22;39789;53.216;5.624;2024-03-02T08:27:31;7.40;99.90
53876;DHT22;39789;53.216;5.624;2024-03-02T08:29:57;7.90;99.90
53876;DHT22;39789;53.216;5.624;2024-03-02T08:32:23;7.80;99.90
53876;DHT22;39789;53.216;5.624;2024-03-02T08:34:49;7.50;99.90
53876;DHT22;39789;53.216;5.624;2024-03-02T08:37:14;8.60;99.90
53876;DHT22;39789;53.216;5.624;2024-03-02T08:39:40;7.60;99.90
53876;DHT22;39789;53.216;5.624;2024-03-02T08:42:06;8.40;99.90
53876;DHT22;39789;53.216;5.624;2024-03-02T08:44:32;7.70;99.90
53876;DHT22;39789;53.216;5.624;2024-03-02T08:46:59;7.80;99.90
53876;DHT22;39789;53.216;5.624;2024-03-02T08:49:25;7.90;99.90
53876;DHT22;39789;53.216;5.624;2024-03-02T08:51:50;8.00;99.90
53876;DHT22;39789;53.216;5.624;2024-03-02T08:54:23;8.30;99.90
53876;DHT22;39789;53.216;5.624;2024-03-02T08:56:52;8.80;99.90
53876;DHT22;39789;53.216;5.624;2024-03-02T08:59:18;8.20;99.90
53876;DHT22;39789;53.216;5.624;2024-03-02T09:01:43;8.80;99.90
53876;DHT22;39789;53.216;5.624;2024-03-02T09:04:10;8.20;99.90
53876;DHT22;39789;53.216;5.624;2024-03-02T09:06:36;8.20;99.90
53876;DHT22;39789;53.216;5.624;2024-03-02T09:09:02;8.20;99.90
53876;DHT22;39789;53.216;5.624;2024-03-02T09:11:28;8.20;99.90
53876;DHT22;39789;53.216;5.624;2024-03-02T09:13:54;8.10;99.90
53876;DHT22;39789;53.216;5.624;2024-03-02T09:16:21;8.70;99.90
53876;DHT22;39789;53.216;5.624;2024-03-02T09:18:47;8.60;99.90
53876;DHT22;39789;53.216;5.624;2024-03-02T09:21:12;8.20;99.90
53876;DHT22;39789;53.216;5.624;2024-03-02T09:23:38;8.30;99.90
53876;DHT22;39789;53.216;5.624;2024-03-02T09:26:05;8.80;99.90
53876;DHT22;39789;53.216;5.624;2024-03-02T09:28:31;8.40;99.90
53876;DHT22;39789;53.216;5.624;2024-03-02T09:30:57;8.70;99.90
53876;DHT22;39789;53.216;5.624;2024-03-02T09:33:22;8.60;99.90
53876;DHT22;39789;53.216;5.624;2024-03-02T09:35:48;8.70;99.90
53876;DHT22;39789;53.216;5.624;2024-03-02T09:38:14;8.50;99.90
53876;DHT22;39789;53.216;5.624;2024-03-02T09:40:41;8.60;99.90
53876;DHT22;39789;53.216;5.624;2024-03-02T09:43:07;8.50;99.90
53876;DHT22;39789;53.216;5.624;2024-03-02T09:45:34;8.80;99.90
53876;DHT22;39789;53.216;5.624;2024-03-02T09:48:00;8.60;99.90
53876;DHT22;39789;53.216;5.624;2024-03-02T09:50:25;8.70;99.90
53876;DHT22;39789;53.216;5.624;2024-03-02T09:52:52;8.70;99.90
53876;DHT22;39789;53.216;5.624;2024-03-02T09:55:19;8.70;99.90
53876;DHT22;39789;53.216;5.624;2024-03-02T09:57:45;8.80;99.90
53876;DHT22;39789;53.216;5.624;2024-03-02T10:00:11;8.80;99.90
53876;DHT22;39789;53.216;5.624;2024-03-02T10:02:41;8.90;99.90
53876;DHT22;39789;53.216;5.624;2024-03-02T10:05:10;9.20;99.90
53876;DHT22;39789;53.216;5.624;2024-03-02T10:07:40;8.90;99.90
53876;DHT22;39789;53.216;5.624;2024-03-02T10:10:13;8.90;99.90
53876;DHT22;39789;53.216;5.624;2024-03-02T10:12:39;9.20;99.90
53876;DHT22;39789;53.216;5.624;2024-03-02T10:15:05;8.80;99.90
53876;DHT22;39789;53.216;5.624;2024-03-02T10:17:32;8.90;99.90
53876;DHT22;39789;53.216;5.624;2024-03-02T10:19:57;9.00;99.90
53876;DHT22;39789;53.216;5.624;2024-03-02T10:22:23;9.10;99.90
53876;DHT22;39789;53.216;5.624;2024-03-02T10:24:49;9.20;99.90
53876;DHT22;39789;53.216;5.624;2024-03-02T10:27:33;9.40;99.90
53876;DHT22;39789;53.216;5.624;2024-03-02T10:29:59;9.20;99.90
53876;DHT22;39789;53.216;5.624;2024-03-02T10:32:28;9.30;99.90
53876;DHT22;39789;53.216;5.624;2024-03-02T10:34:54;9.30;99.90
53876;DHT22;39789;53.216;5.624;2024-03-02T10:37:21;9.30;99.90
53876;DHT22;39789;53.216;5.624;2024-03-02T10:39:47;9.30;99.90
53876;DHT22;39789;53.216;5.624;2024-03-02T10:42:14;9.40;99.90
53876;DHT22;39789;53.216;5.624;2024-03-02T10:44:41;9.40;99.90
53876;DHT22;39789;53.216;5.624;2024-03-02T10:47:09;9.50;99.90
53876;DHT22;39789;53.216;5.624;2024-03-02T10:49:38;9.50;99.90
53876;DHT22;39789;53.216;5.624;2024-03-02T10:52:07;9.60;99.90
53876;DHT22;39789;53.216;5.624;2024-03-02T10:54:34;9.60;99.90
53876;DHT22;39789;53.216;5.624;2024-03-02T10:57:07;9.60;99.90
53876;DHT22;39789;53.216;5.624;2024-03-02T10:59:36;9.60;99.90
53876;DHT22;39789;53.216;5.624;2024-03-02T11:02:05;9.60;99.90
53876;DHT22;39789;53.216;5.624;2024-03-02T11:04:34;9.60;99.90
53876;DHT22;39789;53.216;5.624;2024-03-02T11:07:06;9.60;99.90
53876;DHT22;39789;53.216;5.624;2024-03-02T11:09:34;9.70;99.90
53876;DHT22;39789;53.216;5.624;2024-03-02T11:12:12;9.70;99.90
53876;DHT22;39789;53.216;5.624;2024-03-02T11:14:41;9.70;99.90
53876;DHT22;39789;53.216;5.624;2024-03-02T11:17:11;9.80;99.90
53876;DHT22;39789;53.216;5.624;2024-03-02T11:19:39;9.80;99.90
53876;DHT22;39789;53.216;5.624;2024-03-02T11:22:06;9.90;99.90
53876;DHT22;39789;53.216;5.624;2024-03-02T11:24:32;9.90;99.90
53876;DHT22;39789;53.216;5.624;2024-03-02T11:27:02;10.00;99.90
53876;DHT22;39789;53.216;5.624;2024-03-02T11:32:16;10.00;99.90
53876;DHT22;39789;53.216;5.624;2024-03-02T11:34:45;10.00;99.90
53876;DHT22;39789;53.216;5.624;2024-03-02T11:37:12;10.10;99.90
53876;DHT22;39789;53.216;5.624;2024-03-02T11:39:39;10.10;99.90
53876;DHT22;39789;53.216;5.624;2024-03-02T11:42:06;10.10;99.90
53876;DHT22;39789;53.216;5.624;2024-03-02T11:44:35;10.20;99.90
53876;DHT22;39789;53.216;5.624;2024-03-02T11:47:06;10.20;99.90
53876;DHT22;39789;53.216;5.624;2024-03-02T11:49:48;10.20;99.90
53876;DHT22;39789;53.216;5.624;2024-03-02T11:52:14;10.20;99.90
53876;DHT22;39789;53.216;5.624;2024-03-02T11:54:46;10.30;99.90
53876;DHT22;39789;53.216;5.624;2024-03-02T11:57:13;10.30;97.60
53876;DHT22;39789;53.216;5.624;2024-03-02T11:59:40;10.30;97.80
53876;DHT22;39789;53.216;5.624;2024-03-02T12:02:06;10.30;95.00
53876;DHT22;39789;53.216;5.624;2024-03-02T12:04:32;10.40;97.50
53876;DHT22;39789;53.216;5.624;2024-03-02T12:06:59;10.50;96.90
53876;DHT22;39789;53.216;5.624;2024-03-02T12:09:27;10.40;94.40
53876;DHT22;39789;53.216;5.624;2024-03-02T12:12:06;10.40;92.40
53876;DHT22;39789;53.216;5.624;2024-03-02T12:14:33;10.40;93.40
53876;DHT22;39789;53.216;5.624;2024-03-02T12:17:00;10.50;93.50
53876;DHT22;39789;53.216;5.624;2024-03-02T12:19:26;10.50;91.40
53876;DHT22;39789;53.216;5.624;2024-03-02T12:21:56;10.50;92.00
53876;DHT22;39789;53.216;5.624;2024-03-02T12:24:23;10.60;89.10
53876;DHT22;39789;53.216;5.624;2024-03-02T12:26:50;10.60;91.30
53876;DHT22;39789;53.216;5.624;2024-03-02T12:29:16;10.60;92.60
53876;DHT22;39789;53.216;5.624;2024-03-02T12:31:45;10.60;91.40
53876;DHT22;39789;53.216;5.624;2024-03-02T12:34:16;10.70;93.10
53876;DHT22;39789;53.216;5.624;2024-03-02T12:36:43;10.70;90.80
53876;DHT22;39789;53.216;5.624;2024-03-02T12:39:09;10.70;92.30
53876;DHT22;39789;53.216;5.624;2024-03-02T12:41:38;10.70;91.10
53876;DHT22;39789;53.216;5.624;2024-03-02T12:44:05;10.80;84.20
53876;DHT22;39789;53.216;5.624;2024-03-02T12:46:31;10.80;88.30
53876;DHT22;39789;53.216;5.624;2024-03-02T12:48:58;10.90;89.50
53876;DHT22;39789;53.216;5.624;2024-03-02T12:51:26;10.90;83.10
53876;DHT22;39789;53.216;5.624;2024-03-02T12:53:57;10.90;81.80
53876;DHT22;39789;53.216;5.624;2024-03-02T12:56:24;10.90;76.60
53876;DHT22;39789;53.216;5.624;2024-03-02T12:58:54;11.00;76.30
53876;DHT22;39789;53.216;5.624;2024-03-02T13:01:20;11.00;78.30
53876;DHT22;39789;53.216;5.624;2024-03-02T13:03:49;11.00;76.60
53876;DHT22;39789;53.216;5.624;2024-03-02T13:06:16;11.10;76.10
53876;DHT22;39789;53.216;5.624;2024-03-02T13:08:42;11.10;77.70
53876;DHT22;39789;53.216;5.624;2024-03-02T13:11:09;11.10;78.70
53876;DHT22;39789;53.216;5.624;2024-03-02T13:13:35;11.20;75.40
53876;DHT22;39789;53.216;5.624;2024-03-02T13:16:01;11.20;75.70
53876;DHT22;39789;53.216;5.624;2024-03-02T13:18:28;11.20;77.40
53876;DHT22;39789;53.216;5.624;2024-03-02T13:20:54;11.30;76.90
53876;DHT22;39789;53.216;5.624;2024-03-02T13:23:21;11.30;76.50
53876;DHT22;39789;53.216;5.624;2024-03-02T13:25:47;11.40;74.50
53876;DHT22;39789;53.216;5.624;2024-03-02T13:28:13;11.40;72.90
53876;DHT22;39789;53.216;5.624;2024-03-02T13:30:39;11.50;72.00
53876;DHT22;39789;53.216;5.624;2024-03-02T13:33:04;11.50;71.40
53876;DHT22;39789;53.216;5.624;2024-03-02T13:35:30;11.50;72.60
53876;DHT22;39789;53.216;5.624;2024-03-02T13:37:56;11.50;73.90
53876;DHT22;39789;53.216;5.624;2024-03-02T13:40:22;11.60;73.30
53876;DHT22;39789;53.216;5.624;2024-03-02T13:42:49;11.60;72.40
53876;DHT22;39789;53.216;5.624;2024-03-02T13:45:17;11.50;71.80
53876;DHT22;39789;53.216;5.624;2024-03-02T13:47:43;11.50;73.40
53876;DHT22;39789;53.216;5.624;2024-03-02T13:50:09;11.50;74.30
53876;DHT22;39789;53.216;5.624;2024-03-02T13:52:35;11.50;73.80
53876;DHT22;39789;53.216;5.624;2024-03-02T13:55:01;11.50;74.40
53876;DHT22;39789;53.216;5.624;2024-03-02T13:57:27;11.50;74.90
53876;DHT22;39789;53.216;5.624;2024-03-02T13:59:53;11.60;74.30
53876;DHT22;39789;53.216;5.624;2024-03-02T14:02:20;11.60;76.40
53876;DHT22;39789;53.216;5.624;2024-03-02T14:04:45;11.60;75.80
53876;DHT22;39789;53.216;5.624;2024-03-02T14:07:13;11.60;74.10
53876;DHT22;39789;53.216;5.624;2024-03-02T14:09:39;11.60;73.90
53876;DHT22;39789;53.216;5.624;2024-03-02T14:12:05;11.60;74.10
53876;DHT22;39789;53.216;5.624;2024-03-02T14:14:31;11.60;73.20
53876;DHT22;39789;53.216;5.624;2024-03-02T14:16:57;11.70;73.10
53876;DHT22;39789;53.216;5.624;2024-03-02T14:19:26;11.70;72.60
53876;DHT22;39789;53.216;5.624;2024-03-02T14:21:52;11.80;72.50
53876;DHT22;39789;53.216;5.624;2024-03-02T14:24:18;11.80;71.70
53876;DHT22;39789;53.216;5.624;2024-03-02T14:26:43;11.80;70.30
53876;DHT22;39789;53.216;5.624;2024-03-02T14:29:10;11.70;69.80
53876;DHT22;39789;53.216;5.624;2024-03-02T14:31:36;11.70;69.60
53876;DHT22;39789;53.216;5.624;2024-03-02T14:34:02;11.70;69.60
53876;DHT22;39789;53.216;5.624;2024-03-02T14:36:28;11.70;69.60
53876;DHT22;39789;53.216;5.624;2024-03-02T14:38:54;11.70;69.90
53876;DHT22;39789;53.216;5.624;2024-03-02T14:41:20;11.70;71.60
53876;DHT22;39789;53.216;5.624;2024-03-02T14:43:46;11.80;72.70
53876;DHT22;39789;53.216;5.624;2024-03-02T14:46:12;11.80;72.70
53876;DHT22;39789;53.216;5.624;2024-03-02T14:48:38;11.70;73.90
53876;DHT22;39789;53.216;5.624;2024-03-02T14:51:04;11.80;74.80
53876;DHT22;39789;53.216;5.624;2024-03-02T14:53:30;11.80;72.60
53876;DHT22;39789;53.216;5.624;2024-03-02T14:55:56;11.80;73.40
53876;DHT22;39789;53.216;5.624;2024-03-02T14:58:21;11.80;74.00
53876;DHT22;39789;53.216;5.624;2024-03-02T15:00:47;11.80;73.00
53876;DHT22;39789;53.216;5.624;2024-03-02T15:03:13;11.80;74.10
53876;DHT22;39789;53.216;5.624;2024-03-02T15:05:39;11.80;74.10
53876;DHT22;39789;53.216;5.624;2024-03-02T15:08:06;11.90;75.20
53876;DHT22;39789;53.216;5.624;2024-03-02T15:10:31;11.90;75.30
53876;DHT22;39789;53.216;5.624;2024-03-02T15:12:58;11.90;77.30
53876;DHT22;39789;53.216;5.624;2024-03-02T15:15:24;11.70;77.40
53876;DHT22;39789;53.216;5.624;2024-03-02T15:17:49;11.60;78.70
53876;DHT22;39789;53.216;5.624;2024-03-02T15:20:16;11.50;80.80
53876;DHT22;39789;53.216;5.624;2024-03-02T15:22:41;11.30;82.00
53876;DHT22;39789;53.216;5.624;2024-03-02T15:25:07;11.30;84.50
53876;DHT22;39789;53.216;5.624;2024-03-02T15:27:33;11.20;85.30
53876;DHT22;39789;53.216;5.624;2024-03-02T15:29:59;11.20;84.90
53876;DHT22;39789;53.216;5.624;2024-03-02T15:32:24;11.10;85.90
53876;DHT22;39789;53.216;5.624;2024-03-02T15:34:52;11.10;90.00
53876;DHT22;39789;53.216;5.624;2024-03-02T15:37:18;11.00;91.50
53876;DHT22;39789;53.216;5.624;2024-03-02T15:39:44;10.90;94.90
53876;DHT22;39789;53.216;5.624;2024-03-02T15:42:10;10.90;98.70
53876;DHT22;39789;53.216;5.624;2024-03-02T15:44:36;10.80;99.90